メインページ
METAR-TAF:

METAR-TAF

空港 :

ナンディ国際空港

ナンディ, フィジー

緯度: 17-45S, 経度: 177-27E, 海抜: 13m

現時点の気象観測

当レポートは1時間10分前の20:00(UTC)に作成
東/北東の風 3kt
気温 25°C
湿度 89%
気圧 1012 hPa
視程10km以上
高度2800ftの雲は散在している
高度4800ftの千切れ雲あり

METAR: NFFN 222000Z 07003KT 9999 SCT028 BKN048 25/23 Q1012 NOSIG

時間: 09:10 (21:10 UTC)

予報

当レポートは4時間1分前の17:09(UTC)に作成
予報は22日の 18時(UTC)から 23日の 18時(UTC)まで有効
東/北東の風 5kt
視程10km以上
高度2800ftの雲は散在している
高度4800ftの千切れ雲あり
22日の 21時(UTC)から 22日の 23時(UTC)まで徐々に
西の風 10kt
確率 30% :
23日の 02時(UTC)から 23日の 06時(UTC)まで一時的に
視程: 5000m
高度1700ftの千切れ雲あり
にわか雨
23日の 04時(UTC)から 23日の 06時(UTC)まで徐々に
の風 5kt

TAF: NFFN 221709Z 2218/2318 07005KT 9999 SCT028 BKN048 BECMG 2221/2223 28010KT PROB30 TEMPO 2302/2306 5000 SHRA BKN017 BECMG 2304/2306 08005KT

4,000以上の空港の気象観測と天気予報(METAR報とTAF報)

利用可能な観測所は地図上に黄色い丸と赤い丸で示す。

丸の上にカーソルを重ねると観測所名を参照できる。

次にクリックすると気象観測と天気予報を参照できる。

マップの切り替え:黒色「×」印の緑ボタンをクリックして拡大、「-」印の緑ボタンをクリックして縮小、緑色の三角印をクリックして隣りの地図に切り替え


METAR-TAF: